Time,TemperatureF,DewpointF,PressureIn,WindDirection,WindDirectionDegrees,WindSpeedMPH,WindSpeedGustMPH,Humidity,HourlyPrecipIn,Conditions,Clouds,dailyrainin,SoftwareType,DateUTC
2014-08-31 00:04:00,64.6,63.4,29.82,South,172,0.0,18.0,96,0.00,,,0.00,Wunderground v.1.15,2014-08-31 05:04:00,
2014-08-31 00:10:00,64.5,63.3,29.82,SE,138,0.0,18.0,96,0.00,,,0.00,Wunderground v.1.15,2014-08-31 05:10:00,
2014-08-31 00:16:00,64.3,63.1,29.82,SSE,153,0.0,18.0,96,0.00,,,0.00,Wunderground v.1.15,2014-08-31 05:16:00,
2014-08-31 00:22:00,64.2,63.0,29.82,SSE,161,0.0,18.0,96,0.00,,,0.00,Wunderground v.1.15,2014-08-31 05:22:00,
2014-08-31 00:28:00,64.2,63.0,29.83,SSE,157,0.0,18.0,96,0.00,,,0.00,Wunderground v.1.15,2014-08-31 05:28:00,
2014-08-31 00:33:00,64.1,62.9,29.83,SSE,154,0.0,18.0,96,0.00,,,0.00,Wunderground v.1.15,2014-08-31 05:33:00,
2014-08-31 00:39:00,63.9,62.7,29.83,South,173,0.0,18.0,96,0.00,,,0.00,Wunderground v.1.15,2014-08-31 05:39:00,
2014-08-31 00:45:00,63.8,62.6,29.84,SSE,168,0.0,18.0,96,0.00,,,0.00,Wunderground v.1.15,2014-08-31 05:45:00,
2014-08-31 00:51:00,63.6,62.4,29.84,South,179,0.0,18.0,96,0.00,,,0.00,Wunderground v.1.15,2014-08-31 05:51:00,
2014-08-31 00:57:00,63.3,62.1,29.85,SSW,197,0.0,18.0,96,0.00,,,0.00,Wunderground v.1.15,2014-08-31 05:57:00,
2014-08-31 01:03:00,63.1,61.9,29.85,SSW,197,0.0,18.0,96,0.00,,,0.00,Wunderground v.1.15,2014-08-31 06:03:00,
2014-08-31 01:09:00,63.0,61.8,29.85,SE,146,0.0,18.0,96,0.00,,,0.00,Wunderground v.1.15,2014-08-31 06:09:00,
2014-08-31 01:14:00,63.2,62.0,29.85,SSE,158,0.0,18.0,96,0.00,,,0.00,Wunderground v.1.15,2014-08-31 06:14:00,
2014-08-31 01:20:00,63.6,62.4,29.85,SSE,153,0.0,18.0,96,0.00,,,0.00,Wunderground v.1.15,2014-08-31 06:20:00,
2014-08-31 01:26:00,63.8,62.3,29.85,SSE,162,0.0,18.0,95,0.00,,,0.00,Wunderground v.1.15,2014-08-31 06:26:00,
2014-08-31 01:31:00,63.9,62.1,29.85,SSE,164,0.0,18.0,94,0.00,,,0.00,Wunderground v.1.15,2014-08-31 06:31:00,
2014-08-31 01:37:00,63.9,62.1,29.86,ESE,123,0.0,18.0,94,0.00,,,0.00,Wunderground v.1.15,2014-08-31 06:37:00,
2014-08-31 01:43:00,63.8,61.7,29.86,SSW,202,0.0,18.0,93,0.00,,,0.00,Wunderground v.1.15,2014-08-31 06:43:00,
2014-08-31 01:49:00,63.7,61.9,29.86,SSE,165,0.0,18.0,94,0.00,,,0.00,Wunderground v.1.15,2014-08-31 06:49:00,
2014-08-31 01:54:00,63.5,61.7,29.85,SE,126,0.0,18.0,94,0.00,,,0.00,Wunderground v.1.15,2014-08-31 06:54:00,
2014-08-31 02:00:00,63.3,61.5,29.84,South,172,0.0,18.0,94,0.00,,,0.00,Wunderground v.1.15,2014-08-31 07:00:00,
2014-08-31 02:06:00,63.1,61.3,29.84,ESE,121,0.0,18.0,94,0.00,,,0.00,Wunderground v.1.15,2014-08-31 07:06:00,
2014-08-31 02:12:00,63.0,61.5,29.84,SSE,161,0.0,18.0,95,0.00,,,0.00,Wunderground v.1.15,2014-08-31 07:12:00,
2014-08-31 02:18:00,62.9,61.4,29.83,ESE,107,0.0,18.0,95,0.00,,,0.00,Wunderground v.1.15,2014-08-31 07:18:00,